createdAt,value
2022-11-21T00:00:42.847Z,100307.56
2022-11-21T00:03:44.770Z,100304.97
2022-11-21T00:06:46.325Z,100299.84
2022-11-21T00:09:47.864Z,100297.25
2022-11-21T00:12:54.651Z,100293.81
2022-11-21T00:15:56.226Z,100293.00
2022-11-21T00:18:57.886Z,100301.72
2022-11-21T00:21:59.423Z,100297.44
2022-11-21T00:25:00.922Z,100298.34
2022-11-21T00:28:02.579Z,100298.44
2022-11-21T00:31:05.677Z,100299.31
2022-11-21T00:34:07.435Z,100296.75
2022-11-21T00:37:08.992Z,100298.50
2022-11-21T00:40:11.472Z,100295.06
2022-11-21T00:43:12.960Z,100284.63
2022-11-21T00:46:14.560Z,100284.69
2022-11-21T00:49:16.151Z,100289.06
2022-11-21T00:52:18.590Z,100289.97
2022-11-21T00:55:20.130Z,100282.16
2022-11-21T00:58:21.729Z,100283.06
2022-11-21T01:01:23.231Z,100286.56
2022-11-21T01:04:25.124Z,100278.81
2022-11-21T01:07:26.935Z,100278.84
2022-11-21T01:10:28.620Z,100271.09
2022-11-21T01:13:30.163Z,100282.41
2022-11-21T01:16:32.241Z,100280.72
2022-11-21T01:19:33.855Z,100278.16
2022-11-21T01:22:35.429Z,100273.88
2022-11-21T01:25:36.985Z,100275.63
2022-11-21T01:28:38.646Z,100277.44
2022-11-21T01:31:40.159Z,100268.84
2022-11-21T01:34:41.760Z,100275.84
2022-11-21T01:37:43.278Z,100273.31
2022-11-21T01:40:44.828Z,100269.97
2022-11-21T01:43:48.546Z,100273.50
2022-11-21T01:46:51.666Z,100282.31
2022-11-21T01:49:53.878Z,100279.75
2022-11-21T01:52:55.427Z,100284.16
2022-11-21T01:55:57.231Z,100274.72
2022-11-21T01:59:02.034Z,100281.69
2022-11-21T02:02:07.117Z,100280.06
2022-11-21T02:05:16.040Z,100274.03
2022-11-21T02:08:23.719Z,100277.59
2022-11-21T02:11:40.566Z,100282.00
2022-11-21T02:14:44.524Z,100277.72
2022-11-21T02:17:46.115Z,100274.28
2022-11-21T02:20:53.991Z,100272.63
2022-11-21T02:24:08.738Z,100275.31
2022-11-21T02:27:10.625Z,100277.06
2022-11-21T02:30:13.480Z,100277.09
2022-11-21T02:33:15.643Z,100284.09
2022-11-21T02:36:40.904Z,100282.41
2022-11-21T02:39:43.158Z,100285.97
2022-11-21T02:43:08.920Z,100283.41
2022-11-21T02:46:10.630Z,100284.34
2022-11-21T02:49:12.283Z,100286.94
2022-11-21T02:52:14.136Z,100285.25
2022-11-21T02:55:16.040Z,100287.88
2022-11-21T02:58:17.570Z,100287.06
2022-11-21T03:01:19.192Z,100283.59
2022-11-21T03:04:20.813Z,100285.38
2022-11-21T03:07:22.354Z,100288.03
2022-11-21T03:10:23.929Z,100283.72
2022-11-21T03:13:25.440Z,100292.47
2022-11-21T03:16:27.131Z,100292.47
2022-11-21T03:19:28.743Z,100291.69
2022-11-21T03:22:30.312Z,100293.50
2022-11-21T03:25:31.836Z,100290.03
2022-11-21T03:28:33.369Z,100286.59
2022-11-21T03:31:36.506Z,100277.97
2022-11-21T03:34:38.140Z,100281.44
2022-11-21T03:37:39.669Z,100277.16
2022-11-21T03:40:41.203Z,100276.34
2022-11-21T03:43:42.705Z,100275.56
2022-11-21T03:46:46.234Z,100284.25
2022-11-21T03:49:47.766Z,100289.50
2022-11-21T03:52:49.341Z,100283.44
2022-11-21T03:55:50.888Z,100280.00
2022-11-21T03:58:52.908Z,100288.72
2022-11-21T04:01:54.673Z,100292.25
2022-11-21T04:04:56.236Z,100287.09
2022-11-21T04:07:57.779Z,100289.69
2022-11-21T04:10:59.391Z,100287.19
2022-11-21T04:14:00.933Z,100292.44
2022-11-21T04:17:02.471Z,100281.25
2022-11-21T04:20:04.403Z,100281.28
2022-11-21T04:23:06.760Z,100275.28
2022-11-21T04:26:08.442Z,100278.75
2022-11-21T04:29:10.503Z,100272.72
2022-11-21T04:32:12.010Z,100270.13
2022-11-21T04:35:13.551Z,100267.56
2022-11-21T04:38:15.344Z,100263.28
2022-11-21T04:41:16.906Z,100264.19
2022-11-21T04:44:18.403Z,100264.19
2022-11-21T04:47:20.058Z,100263.34
2022-11-21T04:50:21.710Z,100274.59
2022-11-21T04:53:23.301Z,100272.03
2022-11-21T04:56:24.818Z,100273.78
2022-11-21T04:59:26.386Z,100276.38
2022-11-21T05:02:27.975Z,100278.97
2022-11-21T05:05:29.571Z,100276.41
2022-11-21T05:08:31.064Z,100277.28
2022-11-21T05:11:51.208Z,100273.81
2022-11-21T05:14:52.763Z,100273.00
2022-11-21T05:17:54.367Z,100266.97
2022-11-21T05:20:55.952Z,100267.00
2022-11-21T05:23:57.438Z,100261.84
2022-11-21T05:26:58.950Z,100264.50
2022-11-21T05:30:00.528Z,100268.00
2022-11-21T05:33:02.074Z,100272.34
2022-11-21T05:36:03.814Z,100275.00
2022-11-21T05:39:05.791Z,100270.66
2022-11-21T05:42:07.378Z,100264.63
2022-11-21T05:45:09.510Z,100263.75
2022-11-21T05:48:11.016Z,100252.63
2022-11-21T05:51:12.725Z,100255.31
2022-11-21T05:54:14.838Z,100265.75
2022-11-21T05:57:16.363Z,100256.22
2022-11-21T06:00:18.212Z,100258.81
2022-11-21T06:03:28.700Z,100245.84
2022-11-21T06:06:30.280Z,100255.47
2022-11-21T06:09:31.831Z,100251.22
2022-11-21T06:12:33.364Z,100251.25
2022-11-21T06:15:34.899Z,100246.97
2022-11-21T06:18:39.079Z,100240.94
2022-11-21T06:21:40.952Z,100254.72
2022-11-21T06:24:42.519Z,100255.50
2022-11-21T06:27:44.015Z,100241.59
2022-11-21T06:30:46.368Z,100248.50
2022-11-21T06:33:51.531Z,100249.22
2022-11-21T06:36:53.534Z,100250.88
2022-11-21T06:39:55.080Z,100245.69
2022-11-21T06:42:56.952Z,100243.09
2022-11-21T06:45:58.945Z,100236.13
2022-11-21T06:49:00.554Z,100234.41
2022-11-21T06:52:02.088Z,100233.53
2022-11-21T06:55:03.776Z,100220.53
2022-11-21T06:58:05.342Z,100238.75
2022-11-21T07:01:08.932Z,100235.31
2022-11-21T07:04:10.523Z,100238.84
2022-11-21T07:07:12.466Z,100240.56
2022-11-21T07:10:14.310Z,100253.50
2022-11-21T07:13:21.884Z,100262.16
2022-11-21T07:16:26.184Z,100270.78
2022-11-21T07:19:28.266Z,100264.66
2022-11-21T07:22:30.099Z,100266.34
2022-11-21T07:25:36.452Z,100261.94
2022-11-21T07:28:38.401Z,100267.97
2022-11-21T07:31:39.983Z,100270.47
2022-11-21T07:34:41.492Z,100264.34
2022-11-21T07:37:43.016Z,100260.88
2022-11-21T07:40:44.822Z,100256.50
2022-11-21T07:43:46.414Z,100259.97
2022-11-21T07:46:47.979Z,100250.41
2022-11-21T07:49:49.510Z,100253.81
2022-11-21T07:52:51.143Z,100252.84
2022-11-21T07:55:53.201Z,100257.19
2022-11-21T07:58:54.782Z,100258.88
2022-11-21T08:01:56.347Z,100258.78
2022-11-21T08:04:57.909Z,100253.50
2022-11-21T08:07:59.489Z,100244.75
2022-11-21T08:11:05.638Z,100243.78
2022-11-21T08:14:07.255Z,100239.41
2022-11-21T08:17:08.972Z,100238.38
2022-11-21T08:20:11.285Z,100235.63
2022-11-21T08:23:13.045Z,100231.25
2022-11-21T08:26:14.582Z,100235.47
2022-11-21T08:29:16.223Z,100242.38
2022-11-21T08:32:17.763Z,100238.72
2022-11-21T08:35:19.524Z,100238.59
2022-11-21T08:38:21.110Z,100238.47
2022-11-21T08:41:41.205Z,100249.66
2022-11-21T08:44:42.787Z,100245.19
2022-11-21T08:47:44.640Z,100247.75
2022-11-21T08:50:46.162Z,100245.91
2022-11-21T08:53:47.866Z,100237.16
2022-11-21T08:56:50.455Z,100238.84
2022-11-21T08:59:51.994Z,100239.66
2022-11-21T09:02:53.653Z,100233.44
2022-11-21T09:05:59.539Z,100230.72
2022-11-21T09:09:01.841Z,100235.78
2022-11-21T09:12:03.518Z,100227.78
2022-11-21T09:15:24.776Z,100221.56
2022-11-21T09:18:26.287Z,100223.06
2022-11-21T09:21:27.914Z,100217.53
2022-11-21T09:24:29.452Z,100215.44
2022-11-21T09:27:31.528Z,100217.72
2022-11-21T09:30:34.087Z,100208.66
2022-11-21T09:33:35.842Z,100210.03
2022-11-21T09:36:37.611Z,100211.50
2022-11-21T09:39:39.167Z,100208.53
2022-11-21T09:43:18.076Z,100199.38
2022-11-21T09:46:25.537Z,100206.00
2022-11-21T09:49:27.656Z,100199.56
2022-11-21T09:52:41.832Z,100195.00
2022-11-21T09:56:05.289Z,100193.91
2022-11-21T09:59:34.904Z,100192.91
2022-11-21T10:02:37.002Z,100193.75
2022-11-21T10:05:43.796Z,100192.78
2022-11-21T10:08:45.410Z,100193.59
2022-11-21T10:12:18.639Z,100196.94
2022-11-21T10:15:35.474Z,100191.59
2022-11-21T10:19:11.110Z,100199.31
2022-11-21T10:22:39.881Z,100202.66
2022-11-21T10:25:55.139Z,100202.53
2022-11-21T10:29:10.971Z,100190.13
2022-11-21T10:32:27.090Z,100189.06
2022-11-21T10:35:57.720Z,100188.06
2022-11-21T10:39:03.356Z,100187.03
2022-11-21T10:42:11.007Z,100194.75
2022-11-21T10:45:17.531Z,100194.59
2022-11-21T10:48:19.505Z,100188.34
2022-11-21T10:51:47.202Z,100189.06
2022-11-21T10:55:09.340Z,100185.41
2022-11-21T10:58:19.438Z,100171.69
2022-11-21T11:01:32.352Z,100163.50
2022-11-21T11:04:43.877Z,100158.16
2022-11-21T11:08:10.729Z,100143.28
2022-11-21T11:11:15.306Z,100145.91
2022-11-21T11:14:28.991Z,100140.66
2022-11-21T11:17:34.184Z,100133.56
2022-11-21T11:20:45.017Z,100116.81
2022-11-21T11:23:48.743Z,100104.41
2022-11-21T11:26:59.515Z,100105.09
2022-11-21T11:30:07.121Z,100098.78
2022-11-21T11:33:47.361Z,100089.75
2022-11-21T11:36:51.541Z,100075.44
2022-11-21T11:40:03.910Z,100076.84
2022-11-21T11:43:43.114Z,100079.97
2022-11-21T11:47:27.293Z,100076.25
2022-11-21T11:50:40.233Z,100073.47
2022-11-21T11:53:51.882Z,100067.94
2022-11-21T11:56:54.106Z,100064.19
2022-11-21T12:00:27.898Z,100057.00
2022-11-21T12:03:59.135Z,100050.72
2022-11-21T12:11:05.221Z,100036.22
2022-11-21T12:14:56.653Z,100031.59
2022-11-21T12:18:22.251Z,100026.09
2022-11-21T12:21:24.074Z,100021.44
2022-11-21T12:24:25.653Z,100021.19
2022-11-21T12:27:31.937Z,100023.59
2022-11-21T12:30:57.414Z,100005.97
2022-11-21T12:34:10.012Z,99997.09
2022-11-21T12:37:20.023Z,99990.09
2022-11-21T12:41:24.695Z,99991.72
2022-11-21T12:44:53.968Z,99988.94
2022-11-21T12:48:32.046Z,99986.19
2022-11-21T12:52:01.103Z,99986.19
2022-11-21T12:55:03.043Z,99996.69
2022-11-21T12:58:16.471Z,99986.19
2022-11-21T13:01:44.046Z,99976.56
2022-11-21T13:04:48.800Z,99974.84
2022-11-21T13:08:03.579Z,99962.66
2022-11-21T13:11:26.804Z,99960.91
2022-11-21T13:14:34.750Z,99957.31
2022-11-21T13:17:44.611Z,99968.69
2022-11-21T13:20:49.109Z,99974.66
2022-11-21T13:23:50.614Z,99961.53
2022-11-21T13:26:53.798Z,99964.94
2022-11-21T13:30:07.371Z,99971.06
2022-11-21T13:33:09.807Z,99965.81
2022-11-21T13:36:35.117Z,99957.06
2022-11-21T13:39:38.070Z,99962.31
2022-11-21T13:43:31.303Z,99968.34
2022-11-21T13:47:02.662Z,99948.22
2022-11-21T13:50:16.135Z,99940.38
2022-11-21T13:53:51.065Z,99943.16
2022-11-21T13:57:12.057Z,99938.81
2022-11-21T14:00:22.744Z,99933.72
2022-11-21T14:03:42.839Z,99925.13
2022-11-21T14:06:44.955Z,99938.38
2022-11-21T14:09:48.909Z,99932.28
2022-11-21T14:12:52.815Z,99928.88
2022-11-21T14:16:27.197Z,99925.53
2022-11-21T14:19:31.326Z,99927.44
2022-11-21T14:22:45.548Z,99928.47
2022-11-21T14:25:54.177Z,99921.69
2022-11-21T14:29:18.923Z,99920.25
2022-11-21T14:32:29.538Z,99907.34
2022-11-21T14:35:31.549Z,99904.97
2022-11-21T14:38:40.135Z,99905.31
2022-11-21T14:41:44.966Z,99908.16
2022-11-21T14:44:46.538Z,99904.00
2022-11-21T14:47:53.374Z,99891.06
2022-11-21T14:50:58.207Z,99899.16
2022-11-21T14:53:59.743Z,99901.03
2022-11-21T14:57:08.059Z,99910.84
2022-11-21T15:00:36.133Z,99895.41
2022-11-21T15:03:37.037Z,99897.41
2022-11-21T15:06:44.293Z,99891.50
2022-11-21T15:10:26.869Z,99884.81
2022-11-21T15:13:15.427Z,99877.22
2022-11-21T15:16:17.243Z,99871.38
2022-11-21T15:19:25.782Z,99859.44
2022-11-21T15:22:37.027Z,99859.72
2022-11-21T15:25:47.331Z,99853.84
2022-11-21T15:28:56.324Z,99853.97
2022-11-21T15:35:47.456Z,99844.00
2022-11-21T15:39:01.057Z,99829.34
2022-11-21T15:42:27.844Z,99827.81
2022-11-21T15:45:29.362Z,99829.75
2022-11-21T15:48:30.900Z,99827.31
2022-11-21T15:52:10.475Z,99830.06
2022-11-21T15:55:01.919Z,99818.06
2022-11-21T15:57:14.028Z,99850.75
2022-11-21T15:58:03.605Z,99812.09
2022-11-21T16:01:05.368Z,99822.75
2022-11-21T16:04:10.887Z,99816.78
2022-11-21T16:07:12.517Z,99804.63
2022-11-21T16:10:21.328Z,99806.38
2022-11-21T16:13:27.631Z,99803.84
2022-11-21T16:16:31.901Z,99797.19
2022-11-21T16:19:33.439Z,99801.09
2022-11-21T16:22:35.003Z,99805.75
2022-11-21T16:25:36.628Z,99817.34
2022-11-21T16:28:38.543Z,99807.94
2022-11-21T16:31:40.137Z,99811.63
2022-11-21T16:34:41.695Z,99805.72
2022-11-21T16:37:43.964Z,99797.16
2022-11-21T16:41:04.467Z,99792.59
2022-11-21T16:44:12.458Z,99795.88
2022-11-21T16:47:14.527Z,99777.81
2022-11-21T16:50:16.434Z,99785.84
2022-11-21T16:53:18.036Z,99790.31
2022-11-21T16:56:19.548Z,99789.53
2022-11-21T16:59:21.086Z,99788.75
2022-11-21T17:02:22.764Z,99779.31
2022-11-21T17:05:25.108Z,99773.47
2022-11-21T17:08:30.031Z,99774.50
2022-11-21T17:11:32.121Z,99765.00
2022-11-21T17:14:34.188Z,99764.31
2022-11-21T17:17:36.953Z,99767.03
2022-11-21T17:20:38.600Z,99762.78
2022-11-21T17:23:41.985Z,99758.59
2022-11-21T17:26:43.508Z,99747.38
2022-11-21T17:29:45.055Z,99745.81
2022-11-21T17:32:47.054Z,99737.16
2022-11-21T17:35:48.646Z,99733.03
2022-11-21T17:38:51.730Z,99733.97
2022-11-21T17:41:57.840Z,99729.72
2022-11-21T17:44:59.382Z,99725.50
2022-11-21T17:48:00.932Z,99712.84
2022-11-21T17:51:06.637Z,99708.19
2022-11-21T17:54:12.102Z,99705.56
2022-11-21T17:57:13.644Z,99704.03
2022-11-21T18:00:15.710Z,99698.88
2022-11-21T18:03:17.252Z,99695.50
2022-11-21T18:06:18.811Z,99697.34
2022-11-21T18:09:20.363Z,99682.63
2022-11-21T18:12:22.172Z,99675.75
2022-11-21T18:15:23.687Z,99667.13
2022-11-21T18:18:25.307Z,99648.16
2022-11-21T18:21:32.862Z,99650.03
2022-11-21T18:24:34.383Z,99638.91
2022-11-21T18:27:35.969Z,99638.09
2022-11-21T18:30:37.628Z,99638.22
2022-11-21T18:33:39.772Z,99640.09
2022-11-21T18:36:41.380Z,99630.66
2022-11-21T18:39:42.938Z,99618.72
2022-11-21T18:42:44.502Z,99613.59
2022-11-21T18:45:47.018Z,99616.31
2022-11-21T18:49:07.373Z,99624.16
2022-11-21T18:52:09.711Z,99618.94
2022-11-21T18:55:11.220Z,99611.34
2022-11-21T18:58:12.768Z,99608.94
2022-11-21T19:01:19.919Z,99609.03
2022-11-21T19:04:21.512Z,99613.47
2022-11-21T19:07:23.115Z,99602.25
2022-11-21T19:10:42.695Z,99608.34
2022-11-21T19:13:45.148Z,99594.63
2022-11-21T19:16:46.958Z,99593.78
2022-11-21T19:19:48.846Z,99600.78
2022-11-21T19:22:52.378Z,99613.03
2022-11-21T19:26:00.115Z,99613.91
2022-11-21T19:29:01.755Z,99618.28
2022-11-21T19:32:03.687Z,99621.00
2022-11-21T19:35:05.733Z,99620.19
2022-11-21T19:38:07.253Z,99627.16
2022-11-21T19:41:18.752Z,99621.13
2022-11-21T19:44:20.292Z,99622.00
2022-11-21T19:47:21.822Z,99625.50
2022-11-21T19:50:23.344Z,99622.09
2022-11-21T19:53:25.534Z,99621.22
2022-11-21T19:56:27.097Z,99621.25
2022-11-21T19:59:31.370Z,99622.22
2022-11-21T20:02:33.261Z,99617.91
2022-11-21T20:05:34.799Z,99610.13
2022-11-21T20:08:36.410Z,99602.44
2022-11-21T20:11:40.326Z,99598.09
2022-11-21T20:14:41.963Z,99590.34
2022-11-21T20:17:43.474Z,99580.81
2022-11-21T20:20:45.008Z,99586.09
2022-11-21T20:23:47.215Z,99591.31
2022-11-21T20:26:48.928Z,99593.16
2022-11-21T20:29:50.569Z,99600.97
2022-11-21T20:32:52.084Z,99606.19
2022-11-21T20:35:53.614Z,99604.44
2022-11-21T20:39:04.107Z,99604.44
2022-11-21T20:42:06.786Z,99587.09
2022-11-21T20:46:06.548Z,99581.94
2022-11-21T20:48:33.520Z,99575.84
2022-11-21T20:53:01.028Z,99570.66
2022-11-21T20:54:56.745Z,99573.25
2022-11-21T20:57:58.285Z,99577.56
2022-11-21T21:01:00.120Z,99566.28
2022-11-21T21:04:01.681Z,99572.34
2022-11-21T21:07:03.231Z,99589.69
2022-11-21T21:10:05.306Z,99582.72
2022-11-21T21:13:06.838Z,99586.25
2022-11-21T21:16:15.740Z,99575.81
2022-11-21T21:19:17.564Z,99567.16
2022-11-21T21:22:19.118Z,99568.81
2022-11-21T21:25:20.838Z,99554.78
2022-11-21T21:28:23.459Z,99535.59
2022-11-21T21:31:25.189Z,99548.66
2022-11-21T21:34:26.816Z,99559.94
2022-11-21T21:37:28.455Z,99564.28
2022-11-21T21:40:30.148Z,99552.19
2022-11-21T21:43:32.560Z,99551.25
2022-11-21T21:46:34.108Z,99545.19
2022-11-21T21:49:35.611Z,99544.34
2022-11-21T21:52:37.326Z,99549.59
2022-11-21T21:55:39.004Z,99549.56
2022-11-21T21:58:42.156Z,99535.59
2022-11-21T22:01:44.022Z,99543.44
2022-11-21T22:04:50.563Z,99538.22
2022-11-21T22:07:53.480Z,99537.31
2022-11-21T22:11:01.403Z,99537.31
2022-11-21T22:14:06.016Z,99525.13
2022-11-21T22:17:08.211Z,99517.25
2022-11-21T22:20:10.076Z,99514.63
2022-11-21T22:23:11.621Z,99514.63
2022-11-21T22:26:14.168Z,99504.13
2022-11-21T22:29:15.778Z,99506.63
2022-11-21T22:32:19.818Z,99503.06
2022-11-21T22:35:21.648Z,99483.84
2022-11-21T22:38:23.168Z,99481.03
2022-11-21T22:41:27.214Z,99463.59
2022-11-21T22:44:29.117Z,99465.19
2022-11-21T22:47:30.863Z,99456.44
2022-11-21T22:50:32.935Z,99447.59
2022-11-21T22:53:40.039Z,99462.19
2022-11-21T22:56:41.962Z,99458.63
2022-11-21T22:59:43.568Z,99448.94
2022-11-21T23:02:45.132Z,99454.88
2022-11-21T23:05:46.683Z,99443.44
2022-11-21T23:08:48.460Z,99441.66
2022-11-21T23:11:50.021Z,99433.75
2022-11-21T23:14:52.224Z,99432.00
2022-11-21T23:17:53.755Z,99428.50
2022-11-21T23:20:55.804Z,99446.69
2022-11-21T23:23:57.332Z,99445.91
2022-11-21T23:26:58.857Z,99439.06
2022-11-21T23:30:00.380Z,99442.66
2022-11-21T23:33:02.143Z,99440.19
2022-11-21T23:36:03.851Z,99443.78
2022-11-21T23:39:05.342Z,99439.53
2022-11-21T23:42:06.877Z,99445.72
2022-11-21T23:45:09.038Z,99433.56
2022-11-21T23:48:10.941Z,99442.25
2022-11-21T23:51:12.547Z,99432.78
2022-11-21T23:54:14.050Z,99427.63
2022-11-21T23:57:15.574Z,99427.63
